sensor_id;sensor_type;location;lat;lon;timestamp;temperature;humidity
27803;DHT22;15182;48.174;11.562;2022-12-17T00:00:09;3.40;98.30
27803;DHT22;15182;48.174;11.562;2022-12-17T00:03:00;3.40;98.20
27803;DHT22;15182;48.174;11.562;2022-12-17T00:05:50;3.40;98.10
27803;DHT22;15182;48.174;11.562;2022-12-17T00:08:41;3.40;98.00
27803;DHT22;15182;48.174;11.562;2022-12-17T00:11:31;3.30;97.90
27803;DHT22;15182;48.174;11.562;2022-12-17T00:14:20;3.30;98.00
27803;DHT22;15182;48.174;11.562;2022-12-17T00:17:09;3.30;98.00
27803;DHT22;15182;48.174;11.562;2022-12-17T00:20:06;3.30;97.90
27803;DHT22;15182;48.174;11.562;2022-12-17T00:23:00;3.30;98.00
27803;DHT22;15182;48.174;11.562;2022-12-17T00:25:55;3.30;97.90
27803;DHT22;15182;48.174;11.562;2022-12-17T00:28:50;3.30;97.80
27803;DHT22;15182;48.174;11.562;2022-12-17T00:31:38;3.30;97.90
27803;DHT22;15182;48.174;11.562;2022-12-17T00:34:42;3.30;97.90
27803;DHT22;15182;48.174;11.562;2022-12-17T00:37:40;3.30;97.90
27803;DHT22;15182;48.174;11.562;2022-12-17T00:40:31;3.30;97.90
27803;DHT22;15182;48.174;11.562;2022-12-17T00:43:32;3.30;98.00
27803;DHT22;15182;48.174;11.562;2022-12-17T00:46:21;3.30;98.00
27803;DHT22;15182;48.174;11.562;2022-12-17T00:49:16;3.30;98.00
27803;DHT22;15182;48.174;11.562;2022-12-17T00:52:05;3.30;97.90
27803;DHT22;15182;48.174;11.562;2022-12-17T00:54:54;3.30;98.00
27803;DHT22;15182;48.174;11.562;2022-12-17T00:57:43;3.30;98.00
27803;DHT22;15182;48.174;11.562;2022-12-17T01:00:33;3.20;98.00
27803;DHT22;15182;48.174;11.562;2022-12-17T01:03:24;3.30;98.00
27803;DHT22;15182;48.174;11.562;2022-12-17T01:06:13;3.30;98.00
27803;DHT22;15182;48.174;11.562;2022-12-17T01:09:02;3.20;98.00
27803;DHT22;15182;48.174;11.562;2022-12-17T01:11:51;3.20;98.00
27803;DHT22;15182;48.174;11.562;2022-12-17T01:14:46;3.20;98.00
27803;DHT22;15182;48.174;11.562;2022-12-17T01:17:36;3.20;98.00
27803;DHT22;15182;48.174;11.562;2022-12-17T01:20:26;3.20;97.90
27803;DHT22;15182;48.174;11.562;2022-12-17T01:23:17;3.20;98.00
27803;DHT22;15182;48.174;11.562;2022-12-17T01:26:06;3.20;98.00
27803;DHT22;15182;48.174;11.562;2022-12-17T01:28:57;3.20;97.90
27803;DHT22;15182;48.174;11.562;2022-12-17T01:31:46;3.20;97.80
27803;DHT22;15182;48.174;11.562;2022-12-17T01:34:37;3.20;97.90
27803;DHT22;15182;48.174;11.562;2022-12-17T01:37:25;3.20;97.80
27803;DHT22;15182;48.174;11.562;2022-12-17T01:40:16;3.20;97.90
27803;DHT22;15182;48.174;11.562;2022-12-17T01:43:08;3.10;97.90
27803;DHT22;15182;48.174;11.562;2022-12-17T01:46:10;3.20;97.90
27803;DHT22;15182;48.174;11.562;2022-12-17T01:48:59;3.10;97.90
27803;DHT22;15182;48.174;11.562;2022-12-17T01:51:52;3.10;97.90
27803;DHT22;15182;48.174;11.562;2022-12-17T01:54:46;3.20;98.00
27803;DHT22;15182;48.174;11.562;2022-12-17T01:57:38;3.20;98.00
27803;DHT22;15182;48.174;11.562;2022-12-17T02:00:27;3.20;98.00
27803;DHT22;15182;48.174;11.562;2022-12-17T02:03:21;3.20;98.00
27803;DHT22;15182;48.174;11.562;2022-12-17T02:06:20;3.20;98.00
27803;DHT22;15182;48.174;11.562;2022-12-17T02:09:19;3.20;98.00
27803;DHT22;15182;48.174;11.562;2022-12-17T02:12:20;3.30;98.00
27803;DHT22;15182;48.174;11.562;2022-12-17T02:15:20;3.30;97.90
27803;DHT22;15182;48.174;11.562;2022-12-17T02:18:16;3.30;97.80
27803;DHT22;15182;48.174;11.562;2022-12-17T02:21:08;3.30;97.80
27803;DHT22;15182;48.174;11.562;2022-12-17T02:24:03;3.20;97.70
27803;DHT22;15182;48.174;11.562;2022-12-17T02:27:01;3.20;97.70
27803;DHT22;15182;48.174;11.562;2022-12-17T02:29:56;3.20;97.70
27803;DHT22;15182;48.174;11.562;2022-12-17T02:32:48;3.20;97.70
27803;DHT22;15182;48.174;11.562;2022-12-17T02:35:43;3.20;97.70
27803;DHT22;15182;48.174;11.562;2022-12-17T02:38:34;3.10;97.70
27803;DHT22;15182;48.174;11.562;2022-12-17T02:41:26;3.10;97.70
27803;DHT22;15182;48.174;11.562;2022-12-17T02:44:21;3.10;97.60
27803;DHT22;15182;48.174;11.562;2022-12-17T02:47:24;3.10;97.60
27803;DHT22;15182;48.174;11.562;2022-12-17T02:50:13;3.10;97.70
27803;DHT22;15182;48.174;11.562;2022-12-17T02:53:01;3.10;97.80
27803;DHT22;15182;48.174;11.562;2022-12-17T02:55:52;3.10;97.70
27803;DHT22;15182;48.174;11.562;2022-12-17T02:58:41;3.10;97.70
27803;DHT22;15182;48.174;11.562;2022-12-17T03:01:32;3.00;97.70
27803;DHT22;15182;48.174;11.562;2022-12-17T03:04:20;3.10;97.80
27803;DHT22;15182;48.174;11.562;2022-12-17T03:07:10;3.10;97.70
27803;DHT22;15182;48.174;11.562;2022-12-17T03:09:59;3.10;97.70
27803;DHT22;15182;48.174;11.562;2022-12-17T03:12:48;3.10;97.70
27803;DHT22;15182;48.174;11.562;2022-12-17T03:15:37;3.10;97.60
27803;DHT22;15182;48.174;11.562;2022-12-17T03:18:27;3.00;97.50
27803;DHT22;15182;48.174;11.562;2022-12-17T03:21:17;3.00;97.50
27803;DHT22;15182;48.174;11.562;2022-12-17T03:24:07;3.00;97.50
27803;DHT22;15182;48.174;11.562;2022-12-17T03:26:56;3.00;97.50
27803;DHT22;15182;48.174;11.562;2022-12-17T03:29:45;2.90;97.50
27803;DHT22;15182;48.174;11.562;2022-12-17T03:32:34;2.90;97.50
27803;DHT22;15182;48.174;11.562;2022-12-17T03:35:25;2.90;97.60
27803;DHT22;15182;48.174;11.562;2022-12-17T03:38:14;2.90;97.60
27803;DHT22;15182;48.174;11.562;2022-12-17T03:41:03;2.90;97.60
27803;DHT22;15182;48.174;11.562;2022-12-17T03:43:54;2.90;97.60
27803;DHT22;15182;48.174;11.562;2022-12-17T03:46:43;2.90;97.50
27803;DHT22;15182;48.174;11.562;2022-12-17T03:49:33;2.90;97.60
27803;DHT22;15182;48.174;11.562;2022-12-17T03:52:23;2.90;97.60
27803;DHT22;15182;48.174;11.562;2022-12-17T03:55:28;2.90;97.60
27803;DHT22;15182;48.174;11.562;2022-12-17T03:58:17;2.90;97.60
27803;DHT22;15182;48.174;11.562;2022-12-17T04:01:06;2.90;97.60
27803;DHT22;15182;48.174;11.562;2022-12-17T04:03:55;2.90;97.60
27803;DHT22;15182;48.174;11.562;2022-12-17T04:06:44;2.90;97.60
27803;DHT22;15182;48.174;11.562;2022-12-17T04:09:34;2.90;97.50
27803;DHT22;15182;48.174;11.562;2022-12-17T04:12:23;2.90;97.50
27803;DHT22;15182;48.174;11.562;2022-12-17T04:15:13;2.90;97.50
27803;DHT22;15182;48.174;11.562;2022-12-17T04:18:02;2.90;97.50
27803;DHT22;15182;48.174;11.562;2022-12-17T04:21:05;2.90;97.50
27803;DHT22;15182;48.174;11.562;2022-12-17T04:23:54;2.90;97.40
27803;DHT22;15182;48.174;11.562;2022-12-17T04:26:45;2.90;97.50
27803;DHT22;15182;48.174;11.562;2022-12-17T04:29:37;2.90;97.40
27803;DHT22;15182;48.174;11.562;2022-12-17T04:32:26;2.80;97.40
27803;DHT22;15182;48.174;11.562;2022-12-17T04:35:15;2.80;97.50
27803;DHT22;15182;48.174;11.562;2022-12-17T04:38:04;2.80;97.50
27803;DHT22;15182;48.174;11.562;2022-12-17T04:40:53;2.80;97.50
27803;DHT22;15182;48.174;11.562;2022-12-17T04:43:44;2.80;97.50
27803;DHT22;15182;48.174;11.562;2022-12-17T04:46:33;2.80;97.60
27803;DHT22;15182;48.174;11.562;2022-12-17T04:49:22;2.90;97.60
27803;DHT22;15182;48.174;11.562;2022-12-17T04:52:07;2.90;97.60
27803;DHT22;15182;48.174;11.562;2022-12-17T04:54:56;2.90;97.50
27803;DHT22;15182;48.174;11.562;2022-12-17T04:57:46;2.90;97.50
27803;DHT22;15182;48.174;11.562;2022-12-17T05:00:36;2.90;97.40
27803;DHT22;15182;48.174;11.562;2022-12-17T05:03:25;2.90;97.30
27803;DHT22;15182;48.174;11.562;2022-12-17T05:06:12;2.90;97.20
27803;DHT22;15182;48.174;11.562;2022-12-17T05:09:01;2.90;97.20
27803;DHT22;15182;48.174;11.562;2022-12-17T05:11:50;2.90;97.20
27803;DHT22;15182;48.174;11.562;2022-12-17T05:14:39;2.80;97.10
27803;DHT22;15182;48.174;11.562;2022-12-17T05:17:30;2.90;97.10
27803;DHT22;15182;48.174;11.562;2022-12-17T05:20:19;2.80;96.90
27803;DHT22;15182;48.174;11.562;2022-12-17T05:23:13;2.80;96.90
27803;DHT22;15182;48.174;11.562;2022-12-17T05:26:04;2.80;96.80
27803;DHT22;15182;48.174;11.562;2022-12-17T05:28:56;2.80;96.80
27803;DHT22;15182;48.174;11.562;2022-12-17T05:31:45;2.70;96.80
27803;DHT22;15182;48.174;11.562;2022-12-17T05:34:35;2.70;96.80
27803;DHT22;15182;48.174;11.562;2022-12-17T05:37:24;2.70;97.10
27803;DHT22;15182;48.174;11.562;2022-12-17T05:40:14;2.60;96.60
27803;DHT22;15182;48.174;11.562;2022-12-17T05:43:12;2.60;96.70
27803;DHT22;15182;48.174;11.562;2022-12-17T05:46:01;2.50;96.70
27803;DHT22;15182;48.174;11.562;2022-12-17T05:48:50;2.50;96.70
27803;DHT22;15182;48.174;11.562;2022-12-17T05:51:41;2.50;96.80
27803;DHT22;15182;48.174;11.562;2022-12-17T05:54:30;2.50;96.80
27803;DHT22;15182;48.174;11.562;2022-12-17T05:57:19;2.50;96.80
27803;DHT22;15182;48.174;11.562;2022-12-17T06:00:10;2.50;96.80
27803;DHT22;15182;48.174;11.562;2022-12-17T06:03:01;2.50;96.80
27803;DHT22;15182;48.174;11.562;2022-12-17T06:05:54;2.50;96.70
27803;DHT22;15182;48.174;11.562;2022-12-17T06:08:45;2.50;96.70
27803;DHT22;15182;48.174;11.562;2022-12-17T06:11:33;2.50;96.70
27803;DHT22;15182;48.174;11.562;2022-12-17T06:14:22;2.50;96.70
27803;DHT22;15182;48.174;11.562;2022-12-17T06:17:11;2.50;96.70
27803;DHT22;15182;48.174;11.562;2022-12-17T06:20:00;2.50;97.10
27803;DHT22;15182;48.174;11.562;2022-12-17T06:23:02;2.50;96.70
27803;DHT22;15182;48.174;11.562;2022-12-17T06:25:55;2.50;96.60
27803;DHT22;15182;48.174;11.562;2022-12-17T06:28:44;2.50;97.00
27803;DHT22;15182;48.174;11.562;2022-12-17T06:31:33;2.50;96.60
27803;DHT22;15182;48.174;11.562;2022-12-17T06:34:22;2.40;96.50
27803;DHT22;15182;48.174;11.562;2022-12-17T06:37:12;2.40;96.50
27803;DHT22;15182;48.174;11.562;2022-12-17T06:40:01;2.40;96.50
27803;DHT22;15182;48.174;11.562;2022-12-17T06:42:55;2.40;96.40
27803;DHT22;15182;48.174;11.562;2022-12-17T06:45:44;2.40;96.30
27803;DHT22;15182;48.174;11.562;2022-12-17T06:48:33;2.30;96.30
27803;DHT22;15182;48.174;11.562;2022-12-17T06:51:22;2.30;96.30
27803;DHT22;15182;48.174;11.562;2022-12-17T06:54:11;2.30;96.30
27803;DHT22;15182;48.174;11.562;2022-12-17T06:57:00;2.30;96.30
27803;DHT22;15182;48.174;11.562;2022-12-17T06:59:51;2.30;96.30
27803;DHT22;15182;48.174;11.562;2022-12-17T07:02:40;2.20;96.30
27803;DHT22;15182;48.174;11.562;2022-12-17T07:05:30;2.20;96.30
27803;DHT22;15182;48.174;11.562;2022-12-17T07:08:19;2.20;96.30
27803;DHT22;15182;48.174;11.562;2022-12-17T07:11:09;2.20;96.30
27803;DHT22;15182;48.174;11.562;2022-12-17T07:13:58;2.20;96.20
27803;DHT22;15182;48.174;11.562;2022-12-17T07:16:48;2.20;96.20
27803;DHT22;15182;48.174;11.562;2022-12-17T07:19:37;2.20;96.10
27803;DHT22;15182;48.174;11.562;2022-12-17T07:22:27;2.10;96.10
27803;DHT22;15182;48.174;11.562;2022-12-17T07:25:18;2.10;96.00
27803;DHT22;15182;48.174;11.562;2022-12-17T07:28:07;2.10;96.00
27803;DHT22;15182;48.174;11.562;2022-12-17T07:30:57;2.00;95.90
27803;DHT22;15182;48.174;11.562;2022-12-17T07:33:47;2.00;95.90
27803;DHT22;15182;48.174;11.562;2022-12-17T07:36:36;2.00;95.90
27803;DHT22;15182;48.174;11.562;2022-12-17T07:39:25;2.00;95.90
27803;DHT22;15182;48.174;11.562;2022-12-17T07:42:14;2.00;95.90
27803;DHT22;15182;48.174;11.562;2022-12-17T07:45:03;1.90;95.90
27803;DHT22;15182;48.174;11.562;2022-12-17T07:47:53;1.90;95.90
27803;DHT22;15182;48.174;11.562;2022-12-17T07:50:46;1.90;95.90
27803;DHT22;15182;48.174;11.562;2022-12-17T07:53:36;1.90;95.80
27803;DHT22;15182;48.174;11.562;2022-12-17T07:56:33;1.90;95.90
27803;DHT22;15182;48.174;11.562;2022-12-17T07:59:22;2.00;95.90
27803;DHT22;15182;48.174;11.562;2022-12-17T08:02:13;1.90;95.90
27803;DHT22;15182;48.174;11.562;2022-12-17T08:05:02;1.90;95.80
27803;DHT22;15182;48.174;11.562;2022-12-17T08:07:53;1.90;95.80
27803;DHT22;15182;48.174;11.562;2022-12-17T08:10:49;1.90;95.70
27803;DHT22;15182;48.174;11.562;2022-12-17T08:13:38;1.90;95.60
27803;DHT22;15182;48.174;11.562;2022-12-17T08:16:30;1.90;95.60
27803;DHT22;15182;48.174;11.562;2022-12-17T08:19:19;1.90;95.50
27803;DHT22;15182;48.174;11.562;2022-12-17T08:22:08;1.90;95.50
27803;DHT22;15182;48.174;11.562;2022-12-17T08:25:02;1.80;95.50
27803;DHT22;15182;48.174;11.562;2022-12-17T08:27:54;1.80;95.50
27803;DHT22;15182;48.174;11.562;2022-12-17T08:30:44;1.80;95.50
27803;DHT22;15182;48.174;11.562;2022-12-17T08:33:36;1.70;95.50
27803;DHT22;15182;48.174;11.562;2022-12-17T08:36:25;1.70;95.50
27803;DHT22;15182;48.174;11.562;2022-12-17T08:39:14;1.70;95.50
27803;DHT22;15182;48.174;11.562;2022-12-17T08:42:10;1.70;95.60
27803;DHT22;15182;48.174;11.562;2022-12-17T08:44:59;1.60;95.60
27803;DHT22;15182;48.174;11.562;2022-12-17T08:47:47;1.60;95.60
27803;DHT22;15182;48.174;11.562;2022-12-17T08:50:37;1.60;95.70
27803;DHT22;15182;48.174;11.562;2022-12-17T08:53:26;1.70;95.70
27803;DHT22;15182;48.174;11.562;2022-12-17T08:56:15;1.60;95.60
27803;DHT22;15182;48.174;11.562;2022-12-17T08:59:05;1.60;95.60
27803;DHT22;15182;48.174;11.562;2022-12-17T09:01:54;1.70;95.60
27803;DHT22;15182;48.174;11.562;2022-12-17T09:04:43;1.60;95.50
27803;DHT22;15182;48.174;11.562;2022-12-17T09:07:32;1.60;95.50
27803;DHT22;15182;48.174;11.562;2022-12-17T09:10:26;1.60;96.00
27803;DHT22;15182;48.174;11.562;2022-12-17T09:13:16;1.60;95.70
27803;DHT22;15182;48.174;11.562;2022-12-17T09:16:08;1.60;95.70
27803;DHT22;15182;48.174;11.562;2022-12-17T09:18:57;1.70;95.60
27803;DHT22;15182;48.174;11.562;2022-12-17T09:21:47;1.70;95.70
27803;DHT22;15182;48.174;11.562;2022-12-17T09:24:36;1.70;95.70
27803;DHT22;15182;48.174;11.562;2022-12-17T09:27:29;1.70;95.60
27803;DHT22;15182;48.174;11.562;2022-12-17T09:30:22;1.80;95.60
27803;DHT22;15182;48.174;11.562;2022-12-17T09:33:16;1.80;95.50
27803;DHT22;15182;48.174;11.562;2022-12-17T09:36:07;1.80;95.60
27803;DHT22;15182;48.174;11.562;2022-12-17T09:38:56;1.80;95.60
27803;DHT22;15182;48.174;11.562;2022-12-17T09:41:50;1.90;95.60
27803;DHT22;15182;48.174;11.562;2022-12-17T09:44:46;1.90;95.50
27803;DHT22;15182;48.174;11.562;2022-12-17T09:47:45;2.00;95.50
27803;DHT22;15182;48.174;11.562;2022-12-17T09:50:42;2.00;95.40
27803;DHT22;15182;48.174;11.562;2022-12-17T09:53:35;2.10;95.50
27803;DHT22;15182;48.174;11.562;2022-12-17T09:56:27;2.10;95.50
27803;DHT22;15182;48.174;11.562;2022-12-17T09:59:20;2.20;95.50
27803;DHT22;15182;48.174;11.562;2022-12-17T10:02:16;2.20;95.50
27803;DHT22;15182;48.174;11.562;2022-12-17T10:05:14;2.30;95.50
27803;DHT22;15182;48.174;11.562;2022-12-17T10:08:09;2.30;95.60
27803;DHT22;15182;48.174;11.562;2022-12-17T10:11:10;2.40;95.60
27803;DHT22;15182;48.174;11.562;2022-12-17T10:14:14;2.40;95.40
27803;DHT22;15182;48.174;11.562;2022-12-17T10:17:16;2.50;95.60
27803;DHT22;15182;48.174;11.562;2022-12-17T10:20:20;2.60;95.50
27803;DHT22;15182;48.174;11.562;2022-12-17T10:23:20;2.70;95.50
27803;DHT22;15182;48.174;11.562;2022-12-17T10:26:18;2.70;95.40
27803;DHT22;15182;48.174;11.562;2022-12-17T10:29:14;2.80;95.30
27803;DHT22;15182;48.174;11.562;2022-12-17T10:32:17;2.90;95.30
27803;DHT22;15182;48.174;11.562;2022-12-17T10:35:18;2.90;95.20
27803;DHT22;15182;48.174;11.562;2022-12-17T10:38:18;3.00;95.20
27803;DHT22;15182;48.174;11.562;2022-12-17T10:41:19;3.10;95.20
27803;DHT22;15182;48.174;11.562;2022-12-17T10:44:22;3.20;95.00
27803;DHT22;15182;48.174;11.562;2022-12-17T10:47:16;3.30;95.20
27803;DHT22;15182;48.174;11.562;2022-12-17T10:50:11;3.40;95.30
27803;DHT22;15182;48.174;11.562;2022-12-17T10:53:01;3.50;95.20
27803;DHT22;15182;48.174;11.562;2022-12-17T10:56:04;3.60;95.20
27803;DHT22;15182;48.174;11.562;2022-12-17T10:59:12;3.70;95.20
27803;DHT22;15182;48.174;11.562;2022-12-17T11:02:18;3.80;95.00
27803;DHT22;15182;48.174;11.562;2022-12-17T11:05:18;4.00;95.00
27803;DHT22;15182;48.174;11.562;2022-12-17T11:08:09;4.00;94.80
27803;DHT22;15182;48.174;11.562;2022-12-17T11:11:09;4.10;94.90
27803;DHT22;15182;48.174;11.562;2022-12-17T11:14:10;4.20;94.80
27803;DHT22;15182;48.174;11.562;2022-12-17T11:19:54;4.30;94.20
27803;DHT22;15182;48.174;11.562;2022-12-17T11:22:49;4.30;94.10
27803;DHT22;15182;48.174;11.562;2022-12-17T11:25:43;4.30;94.20
27803;DHT22;15182;48.174;11.562;2022-12-17T11:28:37;4.20;94.10
27803;DHT22;15182;48.174;11.562;2022-12-17T11:31:39;4.20;94.30
27803;DHT22;15182;48.174;11.562;2022-12-17T11:34:39;4.20;94.20
27803;DHT22;15182;48.174;11.562;2022-12-17T11:37:54;4.10;94.30
27803;DHT22;15182;48.174;11.562;2022-12-17T11:40:46;4.10;94.20
27803;DHT22;15182;48.174;11.562;2022-12-17T11:43:46;4.00;94.20
27803;DHT22;15182;48.174;11.562;2022-12-17T11:46:46;4.00;94.30
27803;DHT22;15182;48.174;11.562;2022-12-17T11:49:44;3.90;94.30
27803;DHT22;15182;48.174;11.562;2022-12-17T11:52:46;3.90;94.40
27803;DHT22;15182;48.174;11.562;2022-12-17T11:55:39;3.80;94.20
27803;DHT22;15182;48.174;11.562;2022-12-17T11:58:35;3.80;94.30
27803;DHT22;15182;48.174;11.562;2022-12-17T12:01:39;3.80;94.40
27803;DHT22;15182;48.174;11.562;2022-12-17T12:04:42;3.70;94.40
27803;DHT22;15182;48.174;11.562;2022-12-17T12:07:44;3.80;94.50
27803;DHT22;15182;48.174;11.562;2022-12-17T12:10:44;3.70;94.50
27803;DHT22;15182;48.174;11.562;2022-12-17T12:13:39;3.70;94.50
27803;DHT22;15182;48.174;11.562;2022-12-17T12:16:41;3.70;94.50
27803;DHT22;15182;48.174;11.562;2022-12-17T12:19:36;3.60;94.50
27803;DHT22;15182;48.174;11.562;2022-12-17T12:22:33;3.60;94.60
27803;DHT22;15182;48.174;11.562;2022-12-17T12:25:34;3.60;94.70
27803;DHT22;15182;48.174;11.562;2022-12-17T12:28:33;3.60;94.80
27803;DHT22;15182;48.174;11.562;2022-12-17T12:31:43;3.50;94.70
27803;DHT22;15182;48.174;11.562;2022-12-17T12:34:37;3.60;94.80
27803;DHT22;15182;48.174;11.562;2022-12-17T12:37:26;3.60;94.80
27803;DHT22;15182;48.174;11.562;2022-12-17T12:40:20;3.50;94.80
27803;DHT22;15182;48.174;11.562;2022-12-17T12:43:13;3.50;94.80
27803;DHT22;15182;48.174;11.562;2022-12-17T12:46:11;3.50;94.90
27803;DHT22;15182;48.174;11.562;2022-12-17T12:49:07;3.50;95.00
27803;DHT22;15182;48.174;11.562;2022-12-17T12:52:02;3.50;95.00
27803;DHT22;15182;48.174;11.562;2022-12-17T12:54:56;3.50;95.10
27803;DHT22;15182;48.174;11.562;2022-12-17T12:57:55;3.50;95.10
27803;DHT22;15182;48.174;11.562;2022-12-17T13:00:55;3.50;95.00
27803;DHT22;15182;48.174;11.562;2022-12-17T13:03:51;3.50;95.00
27803;DHT22;15182;48.174;11.562;2022-12-17T13:06:44;3.50;95.10
27803;DHT22;15182;48.174;11.562;2022-12-17T13:09:28;3.50;95.10
27803;DHT22;15182;48.174;11.562;2022-12-17T13:12:21;3.50;94.90
27803;DHT22;15182;48.174;11.562;2022-12-17T13:14:58;3.50;94.90
27803;DHT22;15182;48.174;11.562;2022-12-17T13:17:40;3.50;95.00
27803;DHT22;15182;48.174;11.562;2022-12-17T13:20:23;3.50;95.00
27803;DHT22;15182;48.174;11.562;2022-12-17T13:23:14;3.50;94.80
27803;DHT22;15182;48.174;11.562;2022-12-17T13:26:17;3.50;94.90
27803;DHT22;15182;48.174;11.562;2022-12-17T13:28:58;3.50;94.90
27803;DHT22;15182;48.174;11.562;2022-12-17T13:31:39;3.50;94.90
27803;DHT22;15182;48.174;11.562;2022-12-17T13:34:19;3.50;95.00
27803;DHT22;15182;48.174;11.562;2022-12-17T13:36:58;3.50;95.00
27803;DHT22;15182;48.174;11.562;2022-12-17T13:39:43;3.50;95.00
27803;DHT22;15182;48.174;11.562;2022-12-17T13:42:21;3.50;94.90
27803;DHT22;15182;48.174;11.562;2022-12-17T13:44:56;3.50;94.90
27803;DHT22;15182;48.174;11.562;2022-12-17T13:47:29;3.50;94.90
27803;DHT22;15182;48.174;11.562;2022-12-17T13:50:13;3.50;95.00
27803;DHT22;15182;48.174;11.562;2022-12-17T13:52:48;3.50;95.00
27803;DHT22;15182;48.174;11.562;2022-12-17T13:55:22;3.50;95.00
27803;DHT22;15182;48.174;11.562;2022-12-17T13:57:58;3.50;94.90
27803;DHT22;15182;48.174;11.562;2022-12-17T14:00:31;3.50;94.90
27803;DHT22;15182;48.174;11.562;2022-12-17T14:03:10;3.50;94.90
27803;DHT22;15182;48.174;11.562;2022-12-17T14:05:47;3.40;94.80
27803;DHT22;15182;48.174;11.562;2022-12-17T14:08:30;3.40;94.80
27803;DHT22;15182;48.174;11.562;2022-12-17T14:11:03;3.40;94.80
27803;DHT22;15182;48.174;11.562;2022-12-17T14:13:52;3.40;94.90
27803;DHT22;15182;48.174;11.562;2022-12-17T14:16:30;3.40;94.90
27803;DHT22;15182;48.174;11.562;2022-12-17T14:19:01;3.40;94.80
27803;DHT22;15182;48.174;11.562;2022-12-17T14:21:34;3.40;94.90
27803;DHT22;15182;48.174;11.562;2022-12-17T14:24:12;3.30;95.20
27803;DHT22;15182;48.174;11.562;2022-12-17T14:26:52;3.30;94.90
27803;DHT22;15182;48.174;11.562;2022-12-17T14:29:28;3.30;94.90
27803;DHT22;15182;48.174;11.562;2022-12-17T14:32:19;3.30;94.90
27803;DHT22;15182;48.174;11.562;2022-12-17T14:34:54;3.30;94.90
27803;DHT22;15182;48.174;11.562;2022-12-17T14:37:28;3.30;95.00
27803;DHT22;15182;48.174;11.562;2022-12-17T14:40:06;3.30;94.90
27803;DHT22;15182;48.174;11.562;2022-12-17T14:42:46;3.30;94.90
27803;DHT22;15182;48.174;11.562;2022-12-17T14:45:25;3.20;94.90
27803;DHT22;15182;48.174;11.562;2022-12-17T14:48:00;3.30;94.90
27803;DHT22;15182;48.174;11.562;2022-12-17T14:50:36;3.30;95.00
27803;DHT22;15182;48.174;11.562;2022-12-17T14:53:26;3.20;95.00
27803;DHT22;15182;48.174;11.562;2022-12-17T14:55:59;3.20;94.90
27803;DHT22;15182;48.174;11.562;2022-12-17T15:01:14;3.20;95.00
27803;DHT22;15182;48.174;11.562;2022-12-17T15:03:49;3.20;95.00
27803;DHT22;15182;48.174;11.562;2022-12-17T15:06:22;3.20;94.90
27803;DHT22;15182;48.174;11.562;2022-12-17T15:09:00;3.20;94.90
27803;DHT22;15182;48.174;11.562;2022-12-17T15:11:33;3.20;94.90
27803;DHT22;15182;48.174;11.562;2022-12-17T15:14:06;3.10;94.90
27803;DHT22;15182;48.174;11.562;2022-12-17T15:16:39;3.10;94.90
27803;DHT22;15182;48.174;11.562;2022-12-17T15:19:12;3.10;94.90
27803;DHT22;15182;48.174;11.562;2022-12-17T15:21:46;3.10;95.00
27803;DHT22;15182;48.174;11.562;2022-12-17T15:24:20;3.10;95.00
27803;DHT22;15182;48.174;11.562;2022-12-17T15:26:53;3.10;95.00
27803;DHT22;15182;48.174;11.562;2022-12-17T15:29:26;3.00;95.00
27803;DHT22;15182;48.174;11.562;2022-12-17T15:32:00;3.00;95.00
27803;DHT22;15182;48.174;11.562;2022-12-17T15:34:34;3.00;95.00
27803;DHT22;15182;48.174;11.562;2022-12-17T15:37:07;3.00;95.10
27803;DHT22;15182;48.174;11.562;2022-12-17T15:39:40;3.00;95.10
27803;DHT22;15182;48.174;11.562;2022-12-17T15:42:14;3.00;95.10
27803;DHT22;15182;48.174;11.562;2022-12-17T15:45:06;3.00;95.10
27803;DHT22;15182;48.174;11.562;2022-12-17T15:47:40;2.90;95.10
27803;DHT22;15182;48.174;11.562;2022-12-17T15:50:14;2.90;95.10
27803;DHT22;15182;48.174;11.562;2022-12-17T15:52:47;2.90;95.10
27803;DHT22;15182;48.174;11.562;2022-12-17T15:55:20;2.90;95.20
27803;DHT22;15182;48.174;11.562;2022-12-17T15:57:53;2.80;95.20
27803;DHT22;15182;48.174;11.562;2022-12-17T16:00:27;2.80;95.20
27803;DHT22;15182;48.174;11.562;2022-12-17T16:03:00;2.80;95.20
27803;DHT22;15182;48.174;11.562;2022-12-17T16:05:31;2.80;95.20
27803;DHT22;15182;48.174;11.562;2022-12-17T16:08:05;2.70;95.20
27803;DHT22;15182;48.174;11.562;2022-12-17T16:10:38;2.70;95.20
27803;DHT22;15182;48.174;11.562;2022-12-17T16:13:11;2.70;95.20
27803;DHT22;15182;48.174;11.562;2022-12-17T16:15:53;2.70;95.10
27803;DHT22;15182;48.174;11.562;2022-12-17T16:18:27;2.70;95.10
27803;DHT22;15182;48.174;11.562;2022-12-17T16:21:04;2.60;95.00
27803;DHT22;15182;48.174;11.562;2022-12-17T16:23:38;2.60;95.00
27803;DHT22;15182;48.174;11.562;2022-12-17T16:26:11;2.60;95.10
27803;DHT22;15182;48.174;11.562;2022-12-17T16:28:48;2.60;95.10
27803;DHT22;15182;48.174;11.562;2022-12-17T16:31:20;2.60;95.10
27803;DHT22;15182;48.174;11.562;2022-12-17T16:33:54;2.60;95.10
27803;DHT22;15182;48.174;11.562;2022-12-17T16:36:27;2.50;95.20
27803;DHT22;15182;48.174;11.562;2022-12-17T16:39:00;2.50;95.40
27803;DHT22;15182;48.174;11.562;2022-12-17T16:41:34;2.50;95.20
27803;DHT22;15182;48.174;11.562;2022-12-17T16:44:07;2.50;95.20
27803;DHT22;15182;48.174;11.562;2022-12-17T16:46:41;2.50;95.30
27803;DHT22;15182;48.174;11.562;2022-12-17T16:49:16;2.50;95.30
27803;DHT22;15182;48.174;11.562;2022-12-17T16:51:56;2.50;95.30
27803;DHT22;15182;48.174;11.562;2022-12-17T16:54:32;2.50;95.30
27803;DHT22;15182;48.174;11.562;2022-12-17T16:57:06;2.50;95.30
27803;DHT22;15182;48.174;11.562;2022-12-17T16:59:39;2.40;95.30
27803;DHT22;15182;48.174;11.562;2022-12-17T17:02:16;2.40;95.40
27803;DHT22;15182;48.174;11.562;2022-12-17T17:04:49;2.40;95.40
27803;DHT22;15182;48.174;11.562;2022-12-17T17:07:22;2.40;95.50
27803;DHT22;15182;48.174;11.562;2022-12-17T17:09:53;2.40;95.50
27803;DHT22;15182;48.174;11.562;2022-12-17T17:12:25;2.40;95.60
27803;DHT22;15182;48.174;11.562;2022-12-17T17:14:57;2.30;95.60
27803;DHT22;15182;48.174;11.562;2022-12-17T17:17:29;2.30;95.70
27803;DHT22;15182;48.174;11.562;2022-12-17T17:20:00;2.30;95.80
27803;DHT22;15182;48.174;11.562;2022-12-17T17:22:32;2.30;95.80
27803;DHT22;15182;48.174;11.562;2022-12-17T17:25:03;2.30;95.80
27803;DHT22;15182;48.174;11.562;2022-12-17T17:27:35;2.30;95.90
27803;DHT22;15182;48.174;11.562;2022-12-17T17:30:09;2.30;96.00
27803;DHT22;15182;48.174;11.562;2022-12-17T17:32:42;2.20;96.00
27803;DHT22;15182;48.174;11.562;2022-12-17T17:35:14;2.30;96.00
27803;DHT22;15182;48.174;11.562;2022-12-17T17:37:45;2.20;96.00
27803;DHT22;15182;48.174;11.562;2022-12-17T17:40:16;2.20;96.10
27803;DHT22;15182;48.174;11.562;2022-12-17T17:42:48;2.20;96.20
27803;DHT22;15182;48.174;11.562;2022-12-17T17:45:19;2.30;96.20